createdAt,value
2023-05-12T00:00:58.540Z,15.10
2023-05-12T00:03:45.266Z,15.10
2023-05-12T00:06:32.117Z,14.90
2023-05-12T00:09:19.929Z,14.90
2023-05-12T00:12:07.290Z,14.90
2023-05-12T00:14:53.852Z,14.80
2023-05-12T00:17:40.352Z,14.80
2023-05-12T00:20:27.252Z,14.70
2023-05-12T00:23:13.572Z,15.70
2023-05-12T00:26:01.281Z,14.70
2023-05-12T00:28:48.802Z,14.70
2023-05-12T00:31:35.342Z,14.60
2023-05-12T00:34:22.260Z,14.60
2023-05-12T00:37:08.823Z,14.50
2023-05-12T00:39:55.346Z,14.50
2023-05-12T00:42:43.661Z,14.50
2023-05-12T00:45:30.572Z,14.50
2023-05-12T00:48:23.302Z,14.40
2023-05-12T00:51:10.146Z,14.40
2023-05-12T00:53:57.434Z,14.40
2023-05-12T00:56:43.860Z,14.40
2023-05-12T00:59:31.532Z,14.50
2023-05-12T01:02:18.307Z,14.50
2023-05-12T01:05:05.727Z,14.40
2023-05-12T01:07:52.789Z,14.50
2023-05-12T01:10:44.991Z,14.40
2023-05-12T01:13:31.598Z,14.50
2023-05-12T01:16:24.161Z,14.50
2023-05-12T01:19:18.923Z,14.50
2023-05-12T01:22:06.174Z,14.40
2023-05-12T01:24:56.302Z,14.40
2023-05-12T01:27:44.871Z,14.30
2023-05-12T01:30:33.835Z,14.30
2023-05-12T01:33:20.398Z,14.30
2023-05-12T01:36:07.235Z,14.30
2023-05-12T01:38:53.909Z,14.30
2023-05-12T01:41:41.026Z,14.30
2023-05-12T01:44:29.082Z,14.30
2023-05-12T01:47:16.094Z,14.20
2023-05-12T01:50:03.297Z,14.20
2023-05-12T01:52:49.798Z,14.30
2023-05-12T01:55:36.211Z,14.30
2023-05-12T01:58:22.783Z,14.30
2023-05-12T02:01:10.858Z,14.30
2023-05-12T02:03:57.559Z,14.30
2023-05-12T02:06:44.166Z,14.40
2023-05-12T02:09:31.056Z,14.40
2023-05-12T02:12:17.783Z,14.40
2023-05-12T02:15:04.408Z,14.40
2023-05-12T02:17:54.462Z,14.40
2023-05-12T02:20:41.355Z,14.40
2023-05-12T02:23:27.750Z,14.40
2023-05-12T02:26:14.033Z,14.50
2023-05-12T02:29:00.435Z,14.50
2023-05-12T02:31:46.920Z,14.40
2023-05-12T02:34:34.904Z,14.50
2023-05-12T02:37:21.267Z,14.50
2023-05-12T02:40:09.629Z,14.50
2023-05-12T02:42:56.649Z,14.40
2023-05-12T02:45:43.328Z,14.50
2023-05-12T02:48:30.239Z,14.50
2023-05-12T02:51:18.102Z,14.50
2023-05-12T02:54:04.798Z,14.50
2023-05-12T02:56:51.414Z,14.40
2023-05-12T02:59:37.749Z,14.50
2023-05-12T03:02:24.148Z,14.50
2023-05-12T03:05:11.350Z,14.50
2023-05-12T03:07:59.980Z,14.50
2023-05-12T03:10:46.479Z,14.50
2023-05-12T03:13:33.462Z,14.50
2023-05-12T03:16:20.404Z,14.50
2023-05-12T03:19:07.421Z,14.50
2023-05-12T03:21:53.909Z,14.50
2023-05-12T03:24:41.732Z,14.50
2023-05-12T03:27:28.629Z,14.50
2023-05-12T03:30:15.550Z,14.40
2023-05-12T03:33:02.145Z,14.40
2023-05-12T03:35:48.547Z,14.40
2023-05-12T03:38:34.930Z,14.40
2023-05-12T03:41:23.136Z,14.40
2023-05-12T03:44:11.146Z,14.40
2023-05-12T03:46:59.075Z,14.40
2023-05-12T03:49:45.489Z,14.40
2023-05-12T03:52:32.017Z,14.40
2023-05-12T03:55:18.691Z,14.30
2023-05-12T03:58:06.660Z,14.40
2023-05-12T04:00:53.386Z,14.40
2023-05-12T04:03:41.328Z,14.30
2023-05-12T04:06:28.390Z,14.40
2023-05-12T04:09:16.264Z,14.40
2023-05-12T04:12:02.700Z,14.40
2023-05-12T04:14:50.464Z,14.30
2023-05-12T04:17:37.084Z,14.40
2023-05-12T04:20:23.961Z,14.40
2023-05-12T04:23:10.522Z,14.40
2023-05-12T04:25:56.886Z,14.40
2023-05-12T04:28:43.208Z,14.40
2023-05-12T04:31:31.025Z,14.00
2023-05-12T04:34:17.358Z,14.40
2023-05-12T04:37:03.958Z,14.30
2023-05-12T04:39:50.344Z,14.40
2023-05-12T04:42:36.782Z,14.40
2023-05-12T04:45:23.471Z,14.50
2023-05-12T04:48:11.371Z,14.50
2023-05-12T04:50:59.681Z,14.30
2023-05-12T04:53:46.352Z,14.50
2023-05-12T04:56:32.698Z,14.50
2023-05-12T04:59:19.137Z,14.50
2023-05-12T05:02:05.769Z,14.50
2023-05-12T05:04:53.742Z,14.50
2023-05-12T05:07:40.057Z,14.60
2023-05-12T05:10:26.555Z,14.60
2023-05-12T05:13:12.941Z,14.60
2023-05-12T05:15:59.345Z,14.60
2023-05-12T05:18:46.875Z,14.60
2023-05-12T05:21:35.662Z,14.60
2023-05-12T05:24:22.369Z,14.60
2023-05-12T05:27:08.735Z,14.70
2023-05-12T05:29:55.189Z,14.70
2023-05-12T05:32:41.729Z,14.60
2023-05-12T05:35:28.487Z,14.70
2023-05-12T05:38:16.523Z,14.70
2023-05-12T05:41:03.348Z,14.70
2023-05-12T05:43:49.562Z,14.80
2023-05-12T05:46:36.095Z,14.90
2023-05-12T05:49:23.214Z,14.90
2023-05-12T05:52:09.480Z,14.90
2023-05-12T05:54:57.329Z,14.90
2023-05-12T05:57:44.131Z,15.10
2023-05-12T06:00:30.956Z,15.10
2023-05-12T06:03:17.625Z,15.10
2023-05-12T06:06:05.029Z,15.10
2023-05-12T06:08:51.473Z,15.20
2023-05-12T06:11:39.303Z,15.20
2023-05-12T06:14:26.171Z,15.40
2023-05-12T06:17:12.601Z,15.40
2023-05-12T06:19:58.893Z,15.40
2023-05-12T06:22:46.277Z,15.50
2023-05-12T06:25:33.557Z,15.60
2023-05-12T06:28:21.563Z,15.60
2023-05-12T06:31:08.919Z,15.60
2023-05-12T06:33:55.737Z,15.70
2023-05-12T06:36:42.106Z,15.70
2023-05-12T06:39:28.609Z,15.70
2023-05-12T06:42:15.652Z,15.90
2023-05-12T06:45:03.668Z,15.90
2023-05-12T06:47:50.387Z,16.00
2023-05-12T06:50:37.461Z,16.00
2023-05-12T06:53:25.623Z,16.00
2023-05-12T06:56:16.899Z,16.00
2023-05-12T06:59:04.225Z,16.10
2023-05-12T07:01:52.244Z,16.30
2023-05-12T07:04:39.095Z,16.30
2023-05-12T07:07:25.485Z,16.40
2023-05-12T07:10:12.449Z,16.40
2023-05-12T07:12:59.308Z,16.50
2023-05-12T07:15:46.029Z,16.50
2023-05-12T07:18:33.808Z,16.70
2023-05-12T07:21:20.483Z,16.70
2023-05-12T07:24:07.352Z,16.80
2023-05-12T07:26:53.645Z,16.70
2023-05-12T07:29:40.146Z,16.80
2023-05-12T07:32:27.096Z,16.80
2023-05-12T07:35:15.233Z,17.00
2023-05-12T07:38:03.304Z,16.90
2023-05-12T07:40:49.560Z,17.00
2023-05-12T07:43:35.923Z,17.10
2023-05-12T07:46:22.401Z,17.10
2023-05-12T07:49:08.771Z,17.20
2023-05-12T07:51:56.685Z,17.30
2023-05-12T07:54:43.442Z,17.30
2023-05-12T07:57:29.861Z,17.40
2023-05-12T08:00:16.955Z,17.40
2023-05-12T08:03:03.747Z,17.50
2023-05-12T08:05:50.623Z,17.60
2023-05-12T08:08:38.277Z,17.60
2023-05-12T08:11:24.631Z,17.60
2023-05-12T08:14:11.170Z,17.70
2023-05-12T08:16:57.536Z,17.70
2023-05-12T08:19:44.536Z,17.80
2023-05-12T08:22:31.239Z,17.80
2023-05-12T08:25:19.473Z,17.80
2023-05-12T08:28:06.403Z,17.90
2023-05-12T08:30:53.311Z,17.90
2023-05-12T08:33:39.762Z,18.00
2023-05-12T08:36:26.539Z,18.10
2023-05-12T08:39:13.273Z,18.20
2023-05-12T08:42:11.033Z,18.20
2023-05-12T08:44:58.207Z,18.20
2023-05-12T08:47:46.569Z,18.30
2023-05-12T08:50:36.555Z,18.50
2023-05-12T08:53:23.451Z,18.70
2023-05-12T08:59:05.382Z,18.70
2023-05-12T09:01:52.875Z,18.60
2023-05-12T09:04:39.603Z,18.60
2023-05-12T09:07:27.657Z,18.80
2023-05-12T09:10:32.976Z,19.00
2023-05-12T09:13:28.817Z,18.90
2023-05-12T09:16:20.276Z,19.10
2023-05-12T09:19:07.432Z,19.10
2023-05-12T09:21:54.389Z,19.10
2023-05-12T09:24:42.009Z,19.30
2023-05-12T09:27:29.797Z,19.30
2023-05-12T09:30:16.783Z,19.40
2023-05-12T09:33:08.951Z,19.40
2023-05-12T09:35:55.667Z,19.40
2023-05-12T09:38:42.103Z,19.80
2023-05-12T09:41:28.555Z,20.10
2023-05-12T09:44:17.461Z,20.40
2023-05-12T09:47:08.033Z,20.70
2023-05-12T09:49:57.745Z,20.80
2023-05-12T09:52:44.034Z,21.10
2023-05-12T09:55:30.453Z,21.10
2023-05-12T09:58:18.737Z,21.20
2023-05-12T10:01:21.781Z,20.70
2023-05-12T10:04:10.140Z,20.60
2023-05-12T10:06:59.508Z,20.80
2023-05-12T10:09:48.449Z,21.00
2023-05-12T10:12:36.069Z,21.20
2023-05-12T10:15:25.719Z,21.30
2023-05-12T10:18:12.996Z,21.40
2023-05-12T10:21:01.671Z,21.60
2023-05-12T10:23:50.786Z,21.50
2023-05-12T10:26:39.865Z,21.60
2023-05-12T10:29:30.297Z,21.60
2023-05-12T10:32:17.081Z,21.50
2023-05-12T10:35:10.358Z,21.50
2023-05-12T10:37:57.183Z,21.40
2023-05-12T10:40:53.736Z,21.40
2023-05-12T10:43:43.094Z,21.70
2023-05-12T10:46:30.587Z,22.00
2023-05-12T10:49:18.090Z,22.10
2023-05-12T10:52:04.559Z,22.30
2023-05-12T10:54:51.035Z,22.40
2023-05-12T10:57:50.137Z,22.50
2023-05-12T11:00:46.704Z,22.70
2023-05-12T11:03:36.057Z,22.80
2023-05-12T11:06:25.904Z,23.00
2023-05-12T11:09:13.697Z,23.20
2023-05-12T11:12:01.186Z,23.40
2023-05-12T11:14:49.741Z,23.40
2023-05-12T11:17:40.055Z,23.50
2023-05-12T11:20:30.213Z,23.40
2023-05-12T11:23:29.054Z,23.50
2023-05-12T11:26:19.209Z,23.70
2023-05-12T11:29:05.993Z,23.80
2023-05-12T11:31:54.241Z,23.90
2023-05-12T11:34:41.485Z,24.00
2023-05-12T11:37:28.172Z,24.20
2023-05-12T11:40:16.680Z,24.30
2023-05-12T11:43:11.419Z,24.40
2023-05-12T11:45:57.880Z,24.60
2023-05-12T11:48:46.213Z,24.70
2023-05-12T11:51:32.976Z,24.90
2023-05-12T11:54:19.751Z,25.00
2023-05-12T11:57:07.147Z,25.00
2023-05-12T11:59:58.976Z,24.70
2023-05-12T12:02:45.725Z,25.30
2023-05-12T12:05:34.022Z,25.30
2023-05-12T12:08:20.795Z,25.20
2023-05-12T12:11:07.407Z,25.30
2023-05-12T12:13:57.366Z,25.10
2023-05-12T12:16:43.973Z,25.10
2023-05-12T12:19:30.443Z,24.60
2023-05-12T12:22:18.204Z,24.10
2023-05-12T12:25:05.275Z,24.10
2023-05-12T12:27:53.011Z,23.90
2023-05-12T12:30:39.854Z,23.70
2023-05-12T12:33:26.549Z,23.50
2023-05-12T12:36:12.958Z,23.50
2023-05-12T12:39:00.834Z,24.10
2023-05-12T12:41:48.189Z,24.40
2023-05-12T12:44:34.927Z,24.60
2023-05-12T12:47:21.536Z,24.90
2023-05-12T12:50:10.605Z,26.30
2023-05-12T12:52:57.418Z,25.40
2023-05-12T12:55:45.402Z,25.40
2023-05-12T12:58:32.647Z,25.50
2023-05-12T13:01:19.127Z,25.70
2023-05-12T13:04:06.280Z,25.60
2023-05-12T13:06:53.333Z,25.70
2023-05-12T13:09:39.878Z,25.60
2023-05-12T13:12:29.269Z,25.60
2023-05-12T13:15:16.635Z,25.40
2023-05-12T13:18:04.908Z,25.50
2023-05-12T13:20:51.577Z,25.60
2023-05-12T13:23:38.273Z,25.90
2023-05-12T13:26:24.896Z,26.00
2023-05-12T13:29:12.823Z,26.20
2023-05-12T13:31:59.257Z,26.00
2023-05-12T13:34:45.955Z,26.00
2023-05-12T13:37:32.747Z,26.10
2023-05-12T13:40:19.436Z,25.90
2023-05-12T13:43:06.327Z,25.70
2023-05-12T13:45:54.182Z,25.50
2023-05-12T13:48:40.983Z,25.60
2023-05-12T13:51:27.602Z,25.60
2023-05-12T13:54:14.376Z,25.20
2023-05-12T13:57:00.884Z,25.00
2023-05-12T13:59:47.505Z,25.10
2023-05-12T14:02:35.960Z,25.40
2023-05-12T14:05:22.932Z,25.50
2023-05-12T14:08:09.866Z,25.70
2023-05-12T14:10:57.078Z,25.90
2023-05-12T14:13:44.745Z,26.20
2023-05-12T14:16:31.717Z,26.30
2023-05-12T14:19:19.819Z,26.80
2023-05-12T14:22:18.714Z,26.50
2023-05-12T14:25:11.611Z,26.40
2023-05-12T14:27:58.115Z,26.10
2023-05-12T14:30:45.630Z,25.60
2023-05-12T14:33:32.546Z,25.40
2023-05-12T14:36:20.791Z,25.20
2023-05-12T14:39:08.809Z,25.20
2023-05-12T14:41:55.807Z,25.70
2023-05-12T14:44:42.248Z,26.00
2023-05-12T14:47:28.707Z,26.10
2023-05-12T14:50:15.944Z,26.00
2023-05-12T14:53:03.701Z,26.20
2023-05-12T14:55:50.945Z,26.40
2023-05-12T14:58:37.731Z,26.60
2023-05-12T15:01:24.124Z,26.80
2023-05-12T15:04:10.571Z,26.80
2023-05-12T15:06:57.152Z,26.50
2023-05-12T15:09:44.894Z,25.90
2023-05-12T15:12:31.664Z,25.60
2023-05-12T15:15:18.312Z,25.10
2023-05-12T15:18:05.350Z,24.70
2023-05-12T15:20:52.170Z,24.50
2023-05-12T15:23:38.700Z,24.20
2023-05-12T15:26:33.784Z,24.60
2023-05-12T15:29:22.175Z,25.10
2023-05-12T15:32:09.299Z,25.40
2023-05-12T15:34:57.173Z,25.60
2023-05-12T15:37:43.658Z,25.70
2023-05-12T15:40:30.860Z,26.00
2023-05-12T15:43:19.181Z,26.30
2023-05-12T15:46:05.829Z,26.40
2023-05-12T15:48:52.494Z,26.20
2023-05-12T15:51:39.127Z,25.90
2023-05-12T15:54:26.599Z,25.50
2023-05-12T15:57:13.764Z,25.30
2023-05-12T16:00:02.313Z,24.90
2023-05-12T16:02:49.976Z,24.50
2023-05-12T16:05:38.546Z,24.20
2023-05-12T16:08:25.848Z,24.10
2023-05-12T16:11:13.142Z,24.10
2023-05-12T16:14:02.271Z,24.60
2023-05-12T16:16:51.624Z,24.90
2023-05-12T16:19:38.309Z,25.20
2023-05-12T16:22:24.861Z,25.50
2023-05-12T16:25:11.359Z,25.50
2023-05-12T16:27:58.118Z,25.80
2023-05-12T16:30:45.165Z,25.90
2023-05-12T16:33:32.847Z,26.00
2023-05-12T16:36:19.845Z,26.10
2023-05-12T16:39:07.624Z,25.70
2023-05-12T16:41:54.035Z,25.80
2023-05-12T16:44:40.495Z,25.60
2023-05-12T16:47:27.348Z,25.80
2023-05-12T16:50:15.567Z,25.80
2023-05-12T16:53:02.161Z,25.50
2023-05-12T16:55:48.959Z,25.50
2023-05-12T16:58:35.706Z,25.40
2023-05-12T17:01:22.389Z,25.60
2023-05-12T17:04:11.880Z,25.50
2023-05-12T17:06:59.813Z,25.40
2023-05-12T17:09:46.202Z,25.60
2023-05-12T17:12:32.541Z,25.70
2023-05-12T17:15:19.263Z,25.90
2023-05-12T17:18:06.584Z,25.90
2023-05-12T17:20:53.246Z,25.80
2023-05-12T17:23:41.896Z,25.70
2023-05-12T17:26:29.302Z,25.70
2023-05-12T17:29:15.675Z,25.70
2023-05-12T17:32:02.144Z,25.50
2023-05-12T17:34:50.889Z,25.40
2023-05-12T17:37:38.391Z,25.40
2023-05-12T17:40:26.659Z,25.20
2023-05-12T17:43:13.402Z,24.70
2023-05-12T17:46:00.550Z,24.70
2023-05-12T17:48:47.091Z,24.50
2023-05-12T17:51:33.539Z,24.50
2023-05-12T17:54:19.970Z,24.30
2023-05-12T17:57:08.261Z,24.20
2023-05-12T17:59:54.959Z,24.20
2023-05-12T18:02:41.575Z,24.10
2023-05-12T18:05:28.518Z,23.90
2023-05-12T18:08:15.184Z,23.80
2023-05-12T18:11:01.791Z,23.70
2023-05-12T18:13:51.084Z,23.50
2023-05-12T18:16:38.112Z,23.50
2023-05-12T18:19:27.173Z,23.40
2023-05-12T18:22:16.036Z,23.30
2023-05-12T18:25:02.293Z,23.20
2023-05-12T18:27:48.941Z,23.00
2023-05-12T18:30:36.835Z,22.90
2023-05-12T18:33:23.563Z,22.70
2023-05-12T18:36:10.237Z,22.60
2023-05-12T18:38:56.873Z,22.40
2023-05-12T18:41:43.239Z,22.20
2023-05-12T18:44:29.529Z,22.00
2023-05-12T18:47:17.291Z,21.90
2023-05-12T18:50:04.459Z,21.80
2023-05-12T18:52:50.749Z,21.60
2023-05-12T18:55:37.308Z,21.50
2023-05-12T18:58:23.757Z,21.40
2023-05-12T19:01:10.332Z,21.20
2023-05-12T19:03:58.487Z,21.10
2023-05-12T19:06:45.412Z,21.00
2023-05-12T19:09:32.656Z,20.90
2023-05-12T19:12:19.741Z,20.80
2023-05-12T19:15:07.513Z,20.60
2023-05-12T19:17:54.090Z,20.60
2023-05-12T19:20:42.928Z,20.40
2023-05-12T19:23:31.253Z,20.30
2023-05-12T19:26:17.918Z,20.20
2023-05-12T19:29:04.613Z,20.10
2023-05-12T19:31:52.974Z,20.00
2023-05-12T19:34:40.108Z,19.90
2023-05-12T19:37:29.888Z,19.80
2023-05-12T19:40:16.592Z,19.70
2023-05-12T19:43:05.107Z,19.50
2023-05-12T19:45:51.941Z,19.50
2023-05-12T19:48:38.808Z,19.40
2023-05-12T19:51:25.189Z,19.30
2023-05-12T19:54:13.419Z,19.20
2023-05-12T19:56:59.965Z,19.20
2023-05-12T19:59:46.407Z,19.20
2023-05-12T20:02:33.129Z,19.00
2023-05-12T20:05:20.154Z,19.00
2023-05-12T20:08:07.283Z,18.90
2023-05-12T20:10:55.078Z,18.80
2023-05-12T20:13:41.536Z,18.70
2023-05-12T20:16:28.028Z,18.60
2023-05-12T20:19:14.617Z,18.50
2023-05-12T20:22:01.554Z,18.30
2023-05-12T20:24:48.186Z,18.40
2023-05-12T20:27:36.090Z,18.30
2023-05-12T20:30:22.713Z,18.20
2023-05-12T20:33:09.373Z,18.10
2023-05-12T20:35:55.736Z,18.10
2023-05-12T20:38:42.518Z,18.00
2023-05-12T20:41:28.894Z,18.00
2023-05-12T20:44:16.642Z,17.90
2023-05-12T20:47:03.263Z,17.90
2023-05-12T20:49:50.047Z,17.80
2023-05-12T20:52:38.543Z,17.80
2023-05-12T20:55:26.498Z,17.80
2023-05-12T20:58:12.916Z,17.80
2023-05-12T21:01:00.597Z,17.80
2023-05-12T21:03:46.973Z,17.70
2023-05-12T21:06:35.894Z,17.70
2023-05-12T21:09:22.412Z,17.70
2023-05-12T21:12:09.478Z,17.70
2023-05-12T21:14:56.190Z,17.70
2023-05-12T21:17:44.367Z,17.60
2023-05-12T21:20:31.030Z,17.70
2023-05-12T21:23:17.410Z,17.70
2023-05-12T21:26:03.961Z,17.70
2023-05-12T21:28:50.298Z,17.70
2023-05-12T21:31:36.806Z,17.70
2023-05-12T21:34:25.181Z,17.60
2023-05-12T21:37:11.631Z,17.50
2023-05-12T21:39:58.187Z,17.40
2023-05-12T21:42:44.765Z,17.40
2023-05-12T21:45:31.088Z,17.40
2023-05-12T21:48:17.814Z,17.20
2023-05-12T21:51:06.164Z,17.20
2023-05-12T21:53:54.530Z,17.10
2023-05-12T21:56:41.162Z,17.00
2023-05-12T21:59:29.178Z,17.00
2023-05-12T22:02:16.092Z,16.90
2023-05-12T22:05:02.805Z,16.80
2023-05-12T22:07:50.635Z,16.80
2023-05-12T22:10:37.475Z,16.70
2023-05-12T22:13:24.000Z,16.70
2023-05-12T22:16:10.788Z,16.60
2023-05-12T22:18:58.172Z,16.50
2023-05-12T22:21:44.859Z,16.40
2023-05-12T22:24:32.626Z,16.40
2023-05-12T22:27:22.117Z,16.30
2023-05-12T22:30:10.145Z,16.20
2023-05-12T22:32:57.330Z,16.20
2023-05-12T22:35:43.832Z,16.10
2023-05-12T22:38:30.273Z,16.10
2023-05-12T22:41:17.962Z,16.10
2023-05-12T22:44:04.689Z,16.00
2023-05-12T22:46:51.125Z,15.90
2023-05-12T22:49:38.190Z,15.90
2023-05-12T22:52:24.400Z,15.80
2023-05-12T22:55:11.410Z,15.80
2023-05-12T22:57:59.942Z,15.70
2023-05-12T23:00:46.720Z,15.60
2023-05-12T23:03:33.472Z,15.60
2023-05-12T23:06:20.302Z,15.60
2023-05-12T23:09:06.651Z,15.50
2023-05-12T23:11:53.064Z,15.40
2023-05-12T23:14:40.885Z,15.40
2023-05-12T23:17:27.474Z,15.40
2023-05-12T23:20:14.299Z,15.30
2023-05-12T23:23:00.684Z,15.30
2023-05-12T23:25:48.066Z,15.20
2023-05-12T23:28:34.462Z,15.10
2023-05-12T23:31:22.204Z,15.10
2023-05-12T23:34:08.929Z,15.10
2023-05-12T23:36:55.335Z,15.10
2023-05-12T23:39:41.785Z,15.00
2023-05-12T23:42:28.184Z,15.00
2023-05-12T23:45:15.664Z,14.90
2023-05-12T23:48:03.598Z,14.90
2023-05-12T23:50:50.815Z,14.90
2023-05-12T23:53:37.189Z,14.80
2023-05-12T23:56:23.781Z,14.80
2023-05-12T23:59:10.300Z,14.80
